sensor_id;sensor_type;location;lat;lon;timestamp;pressure;altitude;pressure_sealevel;temperature;humidity
39275;BME280;24980;48.874;2.332;2023-06-10T00:01:59;100460.91;;;29.34;38.94
39275;BME280;24980;48.874;2.332;2023-06-10T00:04:30;100468.08;;;29.34;38.96
39275;BME280;24980;48.874;2.332;2023-06-10T00:07:00;100467.86;;;29.33;38.98
39275;BME280;24980;48.874;2.332;2023-06-10T00:09:30;100466.68;;;29.33;38.98
39275;BME280;24980;48.874;2.332;2023-06-10T00:12:00;100462.45;;;29.32;38.99
39275;BME280;24980;48.874;2.332;2023-06-10T00:14:30;100465.14;;;29.31;39.00
39275;BME280;24980;48.874;2.332;2023-06-10T00:17:00;100465.19;;;29.30;39.01
39275;BME280;24980;48.874;2.332;2023-06-10T00:19:30;100468.62;;;29.30;39.01
39275;BME280;24980;48.874;2.332;2023-06-10T00:22:04;100470.12;;;29.28;39.01
39275;BME280;24980;48.874;2.332;2023-06-10T00:24:31;100472.51;;;29.28;39.01
39275;BME280;24980;48.874;2.332;2023-06-10T00:27:01;100471.48;;;29.27;39.01
39275;BME280;24980;48.874;2.332;2023-06-10T00:29:32;100468.16;;;29.27;39.01
39275;BME280;24980;48.874;2.332;2023-06-10T00:32:02;100471.86;;;29.26;39.02
39275;BME280;24980;48.874;2.332;2023-06-10T00:34:33;100471.38;;;29.26;39.02
39275;BME280;24980;48.874;2.332;2023-06-10T00:37:03;100474.17;;;29.25;39.03
39275;BME280;24980;48.874;2.332;2023-06-10T00:39:34;100475.64;;;29.24;39.03
39275;BME280;24980;48.874;2.332;2023-06-10T00:42:04;100475.53;;;29.24;39.03
39275;BME280;24980;48.874;2.332;2023-06-10T00:44:36;100477.97;;;29.23;39.04
39275;BME280;24980;48.874;2.332;2023-06-10T00:47:05;100482.33;;;29.23;39.05
39275;BME280;24980;48.874;2.332;2023-06-10T00:49:36;100488.85;;;29.22;39.06
39275;BME280;24980;48.874;2.332;2023-06-10T00:52:06;100482.53;;;29.22;39.07
39275;BME280;24980;48.874;2.332;2023-06-10T00:54:38;100485.17;;;29.21;39.08
39275;BME280;24980;48.874;2.332;2023-06-10T00:57:08;100488.17;;;29.21;39.10
39275;BME280;24980;48.874;2.332;2023-06-10T00:59:39;100490.12;;;29.21;39.12
39275;BME280;24980;48.874;2.332;2023-06-10T01:02:09;100488.03;;;29.20;39.13
39275;BME280;24980;48.874;2.332;2023-06-10T01:04:40;100490.94;;;29.20;39.15
39275;BME280;24980;48.874;2.332;2023-06-10T01:07:16;100490.64;;;29.19;39.16
39275;BME280;24980;48.874;2.332;2023-06-10T01:10:09;100488.47;;;29.18;39.18
39275;BME280;24980;48.874;2.332;2023-06-10T01:12:34;100492.48;;;29.18;39.19
39275;BME280;24980;48.874;2.332;2023-06-10T01:14:44;100491.39;;;29.18;39.20
39275;BME280;24980;48.874;2.332;2023-06-10T01:17:12;100490.06;;;29.17;39.21
39275;BME280;24980;48.874;2.332;2023-06-10T01:19:41;100493.06;;;29.16;39.24
39275;BME280;24980;48.874;2.332;2023-06-10T01:22:12;100489.50;;;29.16;39.25
39275;BME280;24980;48.874;2.332;2023-06-10T01:24:42;100489.33;;;29.16;39.27
39275;BME280;24980;48.874;2.332;2023-06-10T01:27:15;100490.79;;;29.16;39.28
39275;BME280;24980;48.874;2.332;2023-06-10T01:29:54;100484.72;;;29.15;39.30
39275;BME280;24980;48.874;2.332;2023-06-10T01:32:18;100483.50;;;29.15;39.32
39275;BME280;24980;48.874;2.332;2023-06-10T01:34:45;100483.03;;;29.14;39.34
39275;BME280;24980;48.874;2.332;2023-06-10T01:37:18;100484.91;;;29.14;39.35
39275;BME280;24980;48.874;2.332;2023-06-10T01:39:49;100485.11;;;29.13;39.37
39275;BME280;24980;48.874;2.332;2023-06-10T01:42:17;100486.58;;;29.13;39.38
39275;BME280;24980;48.874;2.332;2023-06-10T01:44:46;100488.38;;;29.13;39.41
39275;BME280;24980;48.874;2.332;2023-06-10T01:47:16;100491.89;;;29.12;39.42
39275;BME280;24980;48.874;2.332;2023-06-10T01:49:47;100493.72;;;29.12;39.44
39275;BME280;24980;48.874;2.332;2023-06-10T01:52:17;100496.98;;;29.12;39.45
39275;BME280;24980;48.874;2.332;2023-06-10T01:54:47;100498.64;;;29.11;39.47
39275;BME280;24980;48.874;2.332;2023-06-10T01:57:18;100500.88;;;29.10;39.48
39275;BME280;24980;48.874;2.332;2023-06-10T01:59:48;100504.97;;;29.10;39.51
39275;BME280;24980;48.874;2.332;2023-06-10T02:02:18;100505.16;;;29.10;39.52
39275;BME280;24980;48.874;2.332;2023-06-10T02:04:48;100507.89;;;29.10;39.53
39275;BME280;24980;48.874;2.332;2023-06-10T02:07:19;100502.33;;;29.09;39.54
39275;BME280;24980;48.874;2.332;2023-06-10T02:09:51;100504.30;;;29.09;39.56
39275;BME280;24980;48.874;2.332;2023-06-10T02:12:19;100506.47;;;29.08;39.57
39275;BME280;24980;48.874;2.332;2023-06-10T02:14:49;100502.20;;;29.08;39.58
39275;BME280;24980;48.874;2.332;2023-06-10T02:17:19;100503.09;;;29.07;39.59
39275;BME280;24980;48.874;2.332;2023-06-10T02:19:50;100503.61;;;29.07;39.61
39275;BME280;24980;48.874;2.332;2023-06-10T02:22:20;100502.77;;;29.06;39.62
39275;BME280;24980;48.874;2.332;2023-06-10T02:24:51;100503.72;;;29.06;39.63
39275;BME280;24980;48.874;2.332;2023-06-10T02:27:21;100503.94;;;29.06;39.64
39275;BME280;24980;48.874;2.332;2023-06-10T02:29:52;100505.30;;;29.06;39.65
39275;BME280;24980;48.874;2.332;2023-06-10T02:32:22;100502.52;;;29.05;39.66
39275;BME280;24980;48.874;2.332;2023-06-10T02:34:52;100501.17;;;29.04;39.68
39275;BME280;24980;48.874;2.332;2023-06-10T02:37:22;100505.63;;;29.04;39.69
39275;BME280;24980;48.874;2.332;2023-06-10T02:39:53;100505.29;;;29.04;39.71
39275;BME280;24980;48.874;2.332;2023-06-10T02:42:23;100509.42;;;29.03;39.72
39275;BME280;24980;48.874;2.332;2023-06-10T02:44:53;100507.84;;;29.02;39.73
39275;BME280;24980;48.874;2.332;2023-06-10T02:47:23;100509.94;;;29.01;39.74
39275;BME280;24980;48.874;2.332;2023-06-10T02:49:53;100507.23;;;29.00;39.76
39275;BME280;24980;48.874;2.332;2023-06-10T02:52:24;100507.67;;;29.00;39.77
39275;BME280;24980;48.874;2.332;2023-06-10T02:54:54;100510.86;;;28.99;39.78
39275;BME280;24980;48.874;2.332;2023-06-10T02:57:24;100512.73;;;28.99;39.79
39275;BME280;24980;48.874;2.332;2023-06-10T02:59:54;100517.42;;;28.98;39.79
39275;BME280;24980;48.874;2.332;2023-06-10T03:02:24;100517.70;;;28.98;39.80
39275;BME280;24980;48.874;2.332;2023-06-10T03:04:57;100510.55;;;28.97;39.80
39275;BME280;24980;48.874;2.332;2023-06-10T03:07:25;100511.66;;;28.97;39.83
39275;BME280;24980;48.874;2.332;2023-06-10T03:09:56;100510.58;;;28.97;39.82
39275;BME280;24980;48.874;2.332;2023-06-10T03:12:26;100514.06;;;28.97;39.85
39275;BME280;24980;48.874;2.332;2023-06-10T03:14:56;100519.03;;;28.96;39.86
39275;BME280;24980;48.874;2.332;2023-06-10T03:17:27;100518.06;;;28.96;39.87
39275;BME280;24980;48.874;2.332;2023-06-10T03:19:59;100518.34;;;28.95;39.87
39275;BME280;24980;48.874;2.332;2023-06-10T03:22:28;100524.91;;;28.95;39.88
39275;BME280;24980;48.874;2.332;2023-06-10T03:24:58;100521.53;;;28.94;39.90
39275;BME280;24980;48.874;2.332;2023-06-10T03:27:28;100524.11;;;28.94;39.90
39275;BME280;24980;48.874;2.332;2023-06-10T03:29:58;100522.59;;;28.93;39.91
39275;BME280;24980;48.874;2.332;2023-06-10T03:32:29;100519.59;;;28.92;39.92
39275;BME280;24980;48.874;2.332;2023-06-10T03:34:59;100521.30;;;28.92;39.92
39275;BME280;24980;48.874;2.332;2023-06-10T03:37:29;100518.00;;;28.92;39.93
39275;BME280;24980;48.874;2.332;2023-06-10T03:40:00;100520.92;;;28.91;39.94
39275;BME280;24980;48.874;2.332;2023-06-10T03:42:30;100518.64;;;28.90;39.96
39275;BME280;24980;48.874;2.332;2023-06-10T03:45:00;100519.82;;;28.91;39.97
39275;BME280;24980;48.874;2.332;2023-06-10T03:47:36;100518.38;;;28.89;39.97
39275;BME280;24980;48.874;2.332;2023-06-10T03:50:01;100516.34;;;28.89;39.98
39275;BME280;24980;48.874;2.332;2023-06-10T03:52:34;100521.66;;;28.88;39.99
39275;BME280;24980;48.874;2.332;2023-06-10T03:55:01;100524.84;;;28.88;39.99
39275;BME280;24980;48.874;2.332;2023-06-10T03:57:31;100524.23;;;28.88;40.00
39275;BME280;24980;48.874;2.332;2023-06-10T04:00:01;100528.52;;;28.86;40.01
39275;BME280;24980;48.874;2.332;2023-06-10T04:02:32;100530.56;;;28.86;40.02
39275;BME280;24980;48.874;2.332;2023-06-10T04:05:02;100530.33;;;28.85;40.02
39275;BME280;24980;48.874;2.332;2023-06-10T04:07:32;100534.20;;;28.85;40.03
39275;BME280;24980;48.874;2.332;2023-06-10T04:10:03;100533.68;;;28.83;40.04
39275;BME280;24980;48.874;2.332;2023-06-10T04:12:33;100540.01;;;28.83;40.04
39275;BME280;24980;48.874;2.332;2023-06-10T04:15:04;100542.16;;;28.83;40.04
39275;BME280;24980;48.874;2.332;2023-06-10T04:17:33;100540.80;;;28.82;40.04
39275;BME280;24980;48.874;2.332;2023-06-10T04:20:04;100542.47;;;28.81;40.04
39275;BME280;24980;48.874;2.332;2023-06-10T04:22:34;100545.20;;;28.81;40.05
39275;BME280;24980;48.874;2.332;2023-06-10T04:25:05;100538.62;;;28.80;40.05
39275;BME280;24980;48.874;2.332;2023-06-10T04:27:35;100545.95;;;28.80;40.06
39275;BME280;24980;48.874;2.332;2023-06-10T04:30:06;100549.66;;;28.79;40.06
39275;BME280;24980;48.874;2.332;2023-06-10T04:32:35;100549.33;;;28.78;40.07
39275;BME280;24980;48.874;2.332;2023-06-10T04:35:06;100552.42;;;28.78;40.07
39275;BME280;24980;48.874;2.332;2023-06-10T04:37:36;100555.09;;;28.77;40.07
39275;BME280;24980;48.874;2.332;2023-06-10T04:40:07;100558.77;;;28.77;40.08
39275;BME280;24980;48.874;2.332;2023-06-10T04:42:36;100562.48;;;28.77;40.09
39275;BME280;24980;48.874;2.332;2023-06-10T04:45:07;100562.17;;;28.76;40.09
39275;BME280;24980;48.874;2.332;2023-06-10T04:47:37;100566.45;;;28.75;40.10
39275;BME280;24980;48.874;2.332;2023-06-10T04:50:09;100568.78;;;28.74;40.11
39275;BME280;24980;48.874;2.332;2023-06-10T04:52:38;100570.08;;;28.74;40.11
39275;BME280;24980;48.874;2.332;2023-06-10T04:55:08;100566.59;;;28.74;40.12
39275;BME280;24980;48.874;2.332;2023-06-10T04:57:38;100566.30;;;28.73;40.13
39275;BME280;24980;48.874;2.332;2023-06-10T05:00:09;100563.24;;;28.73;40.15
39275;BME280;24980;48.874;2.332;2023-06-10T05:02:39;100569.55;;;28.73;40.16
39275;BME280;24980;48.874;2.332;2023-06-10T05:05:09;100573.16;;;28.72;40.17
39275;BME280;24980;48.874;2.332;2023-06-10T05:07:40;100575.64;;;28.72;40.17
39275;BME280;24980;48.874;2.332;2023-06-10T05:10:10;100575.77;;;28.71;40.19
39275;BME280;24980;48.874;2.332;2023-06-10T05:12:43;100575.41;;;28.70;40.19
39275;BME280;24980;48.874;2.332;2023-06-10T05:15:10;100572.52;;;28.70;40.20
39275;BME280;24980;48.874;2.332;2023-06-10T05:17:41;100571.70;;;28.69;40.21
39275;BME280;24980;48.874;2.332;2023-06-10T05:20:11;100574.87;;;28.68;40.21
39275;BME280;24980;48.874;2.332;2023-06-10T05:22:42;100573.86;;;28.68;40.23
39275;BME280;24980;48.874;2.332;2023-06-10T05:25:12;100574.56;;;28.67;40.23
39275;BME280;24980;48.874;2.332;2023-06-10T05:27:42;100581.05;;;28.67;40.23
39275;BME280;24980;48.874;2.332;2023-06-10T05:30:12;100581.53;;;28.67;40.25
39275;BME280;24980;48.874;2.332;2023-06-10T05:32:42;100590.25;;;28.66;40.28
39275;BME280;24980;48.874;2.332;2023-06-10T05:35:13;100585.25;;;28.65;40.29
39275;BME280;24980;48.874;2.332;2023-06-10T05:37:43;100587.12;;;28.65;40.29
39275;BME280;24980;48.874;2.332;2023-06-10T05:40:13;100586.27;;;28.64;40.30
39275;BME280;24980;48.874;2.332;2023-06-10T05:42:43;100589.00;;;28.64;40.31
39275;BME280;24980;48.874;2.332;2023-06-10T05:45:13;100586.76;;;28.64;40.32
39275;BME280;24980;48.874;2.332;2023-06-10T05:47:43;100589.84;;;28.63;40.33
39275;BME280;24980;48.874;2.332;2023-06-10T05:50:15;100592.14;;;28.63;40.34
39275;BME280;24980;48.874;2.332;2023-06-10T05:52:44;100591.16;;;28.62;40.36
39275;BME280;24980;48.874;2.332;2023-06-10T05:55:14;100592.69;;;28.62;40.37
39275;BME280;24980;48.874;2.332;2023-06-10T05:57:44;100600.11;;;28.62;40.39
39275;BME280;24980;48.874;2.332;2023-06-10T06:00:15;100596.98;;;28.61;40.38
39275;BME280;24980;48.874;2.332;2023-06-10T06:02:45;100596.47;;;28.61;40.41
39275;BME280;24980;48.874;2.332;2023-06-10T06:05:15;100598.37;;;28.61;40.42
39275;BME280;24980;48.874;2.332;2023-06-10T06:07:45;100602.25;;;28.61;40.43
39275;BME280;24980;48.874;2.332;2023-06-10T06:10:17;100601.07;;;28.60;40.44
39275;BME280;24980;48.874;2.332;2023-06-10T06:12:46;100598.45;;;28.59;40.45
39275;BME280;24980;48.874;2.332;2023-06-10T06:15:16;100605.92;;;28.58;40.46
39275;BME280;24980;48.874;2.332;2023-06-10T06:17:46;100606.74;;;28.57;40.48
39275;BME280;24980;48.874;2.332;2023-06-10T06:20:17;100604.82;;;28.58;40.50
39275;BME280;24980;48.874;2.332;2023-06-10T06:22:46;100600.20;;;28.57;40.52
39275;BME280;24980;48.874;2.332;2023-06-10T06:25:17;100599.28;;;28.56;40.53
39275;BME280;24980;48.874;2.332;2023-06-10T06:27:47;100601.73;;;28.57;40.55
39275;BME280;24980;48.874;2.332;2023-06-10T06:30:17;100605.44;;;28.56;40.57
39275;BME280;24980;48.874;2.332;2023-06-10T06:32:47;100605.02;;;28.56;40.62
39275;BME280;24980;48.874;2.332;2023-06-10T06:35:18;100608.16;;;28.56;40.67
39275;BME280;24980;48.874;2.332;2023-06-10T06:37:48;100614.00;;;28.55;40.69
39275;BME280;24980;48.874;2.332;2023-06-10T06:40:18;100614.06;;;28.54;40.71
39275;BME280;24980;48.874;2.332;2023-06-10T06:42:48;100615.95;;;28.53;40.72
39275;BME280;24980;48.874;2.332;2023-06-10T06:45:19;100621.53;;;28.52;40.74
39275;BME280;24980;48.874;2.332;2023-06-10T06:47:49;100619.41;;;28.52;40.75
39275;BME280;24980;48.874;2.332;2023-06-10T06:50:19;100616.83;;;28.51;40.76
39275;BME280;24980;48.874;2.332;2023-06-10T06:52:49;100623.16;;;28.50;40.77
39275;BME280;24980;48.874;2.332;2023-06-10T06:55:20;100623.52;;;28.50;40.78
39275;BME280;24980;48.874;2.332;2023-06-10T06:57:50;100627.91;;;28.49;40.81
39275;BME280;24980;48.874;2.332;2023-06-10T07:00:20;100628.39;;;28.48;40.81
39275;BME280;24980;48.874;2.332;2023-06-10T07:02:50;100632.54;;;28.46;40.83
39275;BME280;24980;48.874;2.332;2023-06-10T07:05:20;100632.39;;;28.44;40.87
39275;BME280;24980;48.874;2.332;2023-06-10T07:07:50;100637.41;;;28.42;40.91
39275;BME280;24980;48.874;2.332;2023-06-10T07:10:28;100633.98;;;28.41;40.95
39275;BME280;24980;48.874;2.332;2023-06-10T07:12:51;100632.41;;;28.40;40.99
39275;BME280;24980;48.874;2.332;2023-06-10T07:15:21;100630.22;;;28.37;41.02
39275;BME280;24980;48.874;2.332;2023-06-10T07:17:51;100635.01;;;28.37;41.06
39275;BME280;24980;48.874;2.332;2023-06-10T07:20:21;100629.41;;;28.35;41.09
39275;BME280;24980;48.874;2.332;2023-06-10T07:22:51;100627.12;;;28.34;41.13
39275;BME280;24980;48.874;2.332;2023-06-10T07:25:21;100630.22;;;28.33;41.17
39275;BME280;24980;48.874;2.332;2023-06-10T07:27:52;100633.55;;;28.33;41.20
39275;BME280;24980;48.874;2.332;2023-06-10T07:30:22;100635.56;;;28.34;41.23
39275;BME280;24980;48.874;2.332;2023-06-10T07:32:52;100634.53;;;28.34;41.25
39275;BME280;24980;48.874;2.332;2023-06-10T07:35:24;100632.25;;;28.34;41.28
39275;BME280;24980;48.874;2.332;2023-06-10T07:37:56;100640.80;;;28.33;41.30
39275;BME280;24980;48.874;2.332;2023-06-10T07:40:23;100643.03;;;28.32;41.35
39275;BME280;24980;48.874;2.332;2023-06-10T07:42:55;100646.79;;;28.32;41.39
39275;BME280;24980;48.874;2.332;2023-06-10T07:45:24;100647.20;;;28.33;41.42
39275;BME280;24980;48.874;2.332;2023-06-10T07:47:54;100649.94;;;28.33;41.46
39275;BME280;24980;48.874;2.332;2023-06-10T07:50:24;100652.05;;;28.33;41.47
39275;BME280;24980;48.874;2.332;2023-06-10T07:52:55;100649.25;;;28.31;41.51
39275;BME280;24980;48.874;2.332;2023-06-10T07:55:25;100655.22;;;28.31;41.53
39275;BME280;24980;48.874;2.332;2023-06-10T07:57:55;100658.57;;;28.30;41.56
39275;BME280;24980;48.874;2.332;2023-06-10T08:00:26;100659.77;;;28.30;41.59
39275;BME280;24980;48.874;2.332;2023-06-10T08:02:56;100662.21;;;28.31;41.60
39275;BME280;24980;48.874;2.332;2023-06-10T08:05:26;100664.73;;;28.32;41.62
39275;BME280;24980;48.874;2.332;2023-06-10T08:07:57;100660.94;;;28.32;41.63
39275;BME280;24980;48.874;2.332;2023-06-10T08:10:27;100666.89;;;28.33;41.66
39275;BME280;24980;48.874;2.332;2023-06-10T08:12:58;100666.17;;;28.34;41.68
39275;BME280;24980;48.874;2.332;2023-06-10T08:15:28;100668.45;;;28.35;41.70
39275;BME280;24980;48.874;2.332;2023-06-10T08:17:58;100671.20;;;28.35;41.74
39275;BME280;24980;48.874;2.332;2023-06-10T08:20:28;100674.83;;;28.35;41.76
39275;BME280;24980;48.874;2.332;2023-06-10T08:22:59;100673.99;;;28.36;41.80
39275;BME280;24980;48.874;2.332;2023-06-10T08:25:29;100673.65;;;28.36;41.82
39275;BME280;24980;48.874;2.332;2023-06-10T08:27:59;100675.08;;;28.37;41.84
39275;BME280;24980;48.874;2.332;2023-06-10T08:30:29;100672.70;;;28.36;41.87
39275;BME280;24980;48.874;2.332;2023-06-10T08:32:59;100671.61;;;28.36;41.88
39275;BME280;24980;48.874;2.332;2023-06-10T08:35:30;100674.75;;;28.36;41.89
39275;BME280;24980;48.874;2.332;2023-06-10T08:38:00;100678.25;;;28.36;41.91
39275;BME280;24980;48.874;2.332;2023-06-10T08:40:30;100675.52;;;28.36;41.92
39275;BME280;24980;48.874;2.332;2023-06-10T08:43:06;100671.17;;;28.36;41.93
39275;BME280;24980;48.874;2.332;2023-06-10T08:45:31;100671.17;;;28.36;41.96
39275;BME280;24980;48.874;2.332;2023-06-10T08:48:05;100673.30;;;28.37;41.98
39275;BME280;24980;48.874;2.332;2023-06-10T08:50:36;100673.52;;;28.37;41.99
39275;BME280;24980;48.874;2.332;2023-06-10T08:53:05;100669.84;;;28.38;42.03
39275;BME280;24980;48.874;2.332;2023-06-10T08:55:36;100675.40;;;28.37;42.05
39275;BME280;24980;48.874;2.332;2023-06-10T08:58:04;100674.70;;;28.38;42.07
39275;BME280;24980;48.874;2.332;2023-06-10T09:00:35;100675.38;;;28.38;42.10
39275;BME280;24980;48.874;2.332;2023-06-10T09:03:05;100675.38;;;28.38;42.14
39275;BME280;24980;48.874;2.332;2023-06-10T09:05:35;100676.91;;;28.38;42.16
39275;BME280;24980;48.874;2.332;2023-06-10T09:08:08;100677.12;;;28.39;42.18
39275;BME280;24980;48.874;2.332;2023-06-10T09:10:36;100666.64;;;28.38;42.20
39275;BME280;24980;48.874;2.332;2023-06-10T09:13:07;100674.12;;;28.39;42.23
39275;BME280;24980;48.874;2.332;2023-06-10T09:15:37;100675.84;;;28.38;42.25
39275;BME280;24980;48.874;2.332;2023-06-10T09:18:07;100678.38;;;28.39;42.28
39275;BME280;24980;48.874;2.332;2023-06-10T09:20:39;100679.20;;;28.40;42.29
39275;BME280;24980;48.874;2.332;2023-06-10T09:23:08;100674.88;;;28.39;42.31
39275;BME280;24980;48.874;2.332;2023-06-10T09:25:39;100675.70;;;28.40;42.32
39275;BME280;24980;48.874;2.332;2023-06-10T09:28:17;100673.81;;;28.41;42.35
39275;BME280;24980;48.874;2.332;2023-06-10T09:30:39;100670.73;;;28.41;42.33
39275;BME280;24980;48.874;2.332;2023-06-10T09:33:13;100671.14;;;28.41;42.36
39275;BME280;24980;48.874;2.332;2023-06-10T09:35:47;100673.73;;;28.42;42.37
39275;BME280;24980;48.874;2.332;2023-06-10T09:38:10;100667.08;;;28.42;42.38
39275;BME280;24980;48.874;2.332;2023-06-10T09:40:49;100672.00;;;28.43;42.40
39275;BME280;24980;48.874;2.332;2023-06-10T09:43:11;100666.78;;;28.43;42.41
39275;BME280;24980;48.874;2.332;2023-06-10T09:45:41;100664.47;;;28.44;42.42
39275;BME280;24980;48.874;2.332;2023-06-10T09:48:11;100671.53;;;28.44;42.43
39275;BME280;24980;48.874;2.332;2023-06-10T09:50:42;100676.03;;;28.45;42.44
39275;BME280;24980;48.874;2.332;2023-06-10T09:53:12;100674.95;;;28.45;42.44
39275;BME280;24980;48.874;2.332;2023-06-10T09:55:42;100675.68;;;28.46;42.45
39275;BME280;24980;48.874;2.332;2023-06-10T09:58:12;100675.76;;;28.47;42.45
39275;BME280;24980;48.874;2.332;2023-06-10T10:00:42;100680.16;;;28.48;42.46
39275;BME280;24980;48.874;2.332;2023-06-10T10:03:23;100675.92;;;28.48;42.46
39275;BME280;24980;48.874;2.332;2023-06-10T10:05:44;100680.57;;;28.50;42.46
39275;BME280;24980;48.874;2.332;2023-06-10T10:08:13;100680.97;;;28.50;42.46
39275;BME280;24980;48.874;2.332;2023-06-10T10:10:45;100674.18;;;28.51;42.46
39275;BME280;24980;48.874;2.332;2023-06-10T10:13:14;100674.58;;;28.52;42.47
39275;BME280;24980;48.874;2.332;2023-06-10T10:15:45;100668.77;;;28.52;42.46
39275;BME280;24980;48.874;2.332;2023-06-10T10:18:17;100672.56;;;28.54;42.46
39275;BME280;24980;48.874;2.332;2023-06-10T10:20:50;100671.11;;;28.55;42.45
39275;BME280;24980;48.874;2.332;2023-06-10T10:23:21;100675.08;;;28.57;42.45
39275;BME280;24980;48.874;2.332;2023-06-10T10:25:54;100675.25;;;28.57;42.44
39275;BME280;24980;48.874;2.332;2023-06-10T10:28:20;100677.77;;;28.58;42.44
39275;BME280;24980;48.874;2.332;2023-06-10T10:30:51;100670.19;;;28.59;42.43
39275;BME280;24980;48.874;2.332;2023-06-10T10:33:31;100671.27;;;28.60;42.43
39275;BME280;24980;48.874;2.332;2023-06-10T10:35:49;100666.58;;;28.61;42.43
39275;BME280;24980;48.874;2.332;2023-06-10T10:38:19;100666.37;;;28.62;42.43
39275;BME280;24980;48.874;2.332;2023-06-10T10:40:50;100661.98;;;28.64;42.41
39275;BME280;24980;48.874;2.332;2023-06-10T10:43:20;100664.20;;;28.65;42.41
39275;BME280;24980;48.874;2.332;2023-06-10T10:46:08;100660.70;;;28.66;42.42
39275;BME280;24980;48.874;2.332;2023-06-10T10:48:21;100670.48;;;28.67;42.40
39275;BME280;24980;48.874;2.332;2023-06-10T10:50:57;100665.16;;;28.69;42.40
39275;BME280;24980;48.874;2.332;2023-06-10T10:53:21;100662.16;;;28.70;42.40
39275;BME280;24980;48.874;2.332;2023-06-10T10:56:13;100660.98;;;28.71;42.38
39275;BME280;24980;48.874;2.332;2023-06-10T10:58:24;100662.58;;;28.71;42.39
39275;BME280;24980;48.874;2.332;2023-06-10T11:00:52;100662.72;;;28.72;42.38
39275;BME280;24980;48.874;2.332;2023-06-10T11:03:27;100660.46;;;28.73;42.37
39275;BME280;24980;48.874;2.332;2023-06-10T11:05:57;100654.09;;;28.74;42.35
39275;BME280;24980;48.874;2.332;2023-06-10T11:10:54;100648.96;;;28.78;42.34
39275;BME280;24980;48.874;2.332;2023-06-10T11:13:25;100656.36;;;28.79;42.33
39275;BME280;24980;48.874;2.332;2023-06-10T11:15:57;100656.92;;;28.80;42.33
39275;BME280;24980;48.874;2.332;2023-06-10T11:18:29;100646.70;;;28.81;42.29
39275;BME280;24980;48.874;2.332;2023-06-10T11:20:57;100650.04;;;28.83;42.31
39275;BME280;24980;48.874;2.332;2023-06-10T11:23:35;100647.35;;;28.84;42.31
39275;BME280;24980;48.874;2.332;2023-06-10T11:26:15;100644.25;;;28.85;42.32
39275;BME280;24980;48.874;2.332;2023-06-10T11:28:28;100650.22;;;28.85;42.32
39275;BME280;24980;48.874;2.332;2023-06-10T11:30:58;100647.19;;;28.86;42.32
39275;BME280;24980;48.874;2.332;2023-06-10T11:33:29;100649.05;;;28.86;42.32
39275;BME280;24980;48.874;2.332;2023-06-10T11:35:59;100652.16;;;28.87;42.30
39275;BME280;24980;48.874;2.332;2023-06-10T11:38:29;100654.62;;;28.87;42.30
39275;BME280;24980;48.874;2.332;2023-06-10T11:41:01;100654.77;;;28.88;42.29
39275;BME280;24980;48.874;2.332;2023-06-10T11:43:30;100650.23;;;28.88;42.28
39275;BME280;24980;48.874;2.332;2023-06-10T11:46:01;100654.53;;;28.89;42.28
39275;BME280;24980;48.874;2.332;2023-06-10T11:48:31;100651.98;;;28.89;42.27
39275;BME280;24980;48.874;2.332;2023-06-10T11:51:06;100650.72;;;28.90;42.26
39275;BME280;24980;48.874;2.332;2023-06-10T11:53:33;100655.09;;;28.92;42.23
39275;BME280;24980;48.874;2.332;2023-06-10T11:56:03;100649.44;;;28.94;42.23
39275;BME280;24980;48.874;2.332;2023-06-10T11:58:34;100648.70;;;28.96;42.23
39275;BME280;24980;48.874;2.332;2023-06-10T12:01:04;100643.73;;;28.97;42.22
39275;BME280;24980;48.874;2.332;2023-06-10T12:03:36;100660.48;;;28.99;42.21
39275;BME280;24980;48.874;2.332;2023-06-10T12:06:07;100656.04;;;29.01;42.20
39275;BME280;24980;48.874;2.332;2023-06-10T12:08:41;100649.08;;;29.02;42.19
39275;BME280;24980;48.874;2.332;2023-06-10T12:11:07;100648.33;;;29.03;42.19
39275;BME280;24980;48.874;2.332;2023-06-10T12:13:45;100645.03;;;29.05;42.18
39275;BME280;24980;48.874;2.332;2023-06-10T12:16:11;100648.19;;;29.06;42.17
39275;BME280;24980;48.874;2.332;2023-06-10T12:18:40;100649.62;;;29.07;42.16
39275;BME280;24980;48.874;2.332;2023-06-10T12:21:19;100643.11;;;29.08;42.16
39275;BME280;24980;48.874;2.332;2023-06-10T12:23:40;100640.92;;;29.09;42.15
39275;BME280;24980;48.874;2.332;2023-06-10T12:26:10;100641.71;;;29.10;42.14
39275;BME280;24980;48.874;2.332;2023-06-10T12:28:50;100645.84;;;29.11;42.13
39275;BME280;24980;48.874;2.332;2023-06-10T12:31:11;100639.61;;;29.11;42.12
39275;BME280;24980;48.874;2.332;2023-06-10T12:33:42;100644.20;;;29.13;42.11
39275;BME280;24980;48.874;2.332;2023-06-10T12:36:16;100639.75;;;29.14;42.09
39275;BME280;24980;48.874;2.332;2023-06-10T12:38:42;100643.03;;;29.15;42.08
39275;BME280;24980;48.874;2.332;2023-06-10T12:41:14;100642.59;;;29.16;42.06
39275;BME280;24980;48.874;2.332;2023-06-10T12:43:46;100644.77;;;29.18;42.07
39275;BME280;24980;48.874;2.332;2023-06-10T12:46:13;100634.25;;;29.18;42.05
39275;BME280;24980;48.874;2.332;2023-06-10T12:48:50;100633.50;;;29.19;42.04
39275;BME280;24980;48.874;2.332;2023-06-10T12:51:15;100635.17;;;29.20;42.04
39275;BME280;24980;48.874;2.332;2023-06-10T12:53:45;100633.62;;;29.22;42.03
39275;BME280;24980;48.874;2.332;2023-06-10T12:56:18;100637.62;;;29.22;42.04
39275;BME280;24980;48.874;2.332;2023-06-10T12:58:46;100629.84;;;29.22;42.04
39275;BME280;24980;48.874;2.332;2023-06-10T13:01:17;100635.44;;;29.23;42.04
39275;BME280;24980;48.874;2.332;2023-06-10T13:03:48;100627.48;;;29.25;42.03
39275;BME280;24980;48.874;2.332;2023-06-10T13:06:18;100629.47;;;29.26;42.01
39275;BME280;24980;48.874;2.332;2023-06-10T13:08:48;100631.05;;;29.27;42.02